Aérodrome :
LOGIN :

S'inscrire | Disclaimer

   EN    FR    IT 

 










Légende :    VFR   VFR Marginal   IFR   IFR Intensif   IFR Très Intensif
Visi : 
Plafond : 
>= 8 km
>= 3000ft
5 à 8 km
1000 à 3000 ft
1500m à 5 km
500 à 1000 ft
800 à 1500m
200 à 500 ft
< 800m
< 200 ft
Symboles :   Orages  Brouillard  Fortes neiges  Fortes précipitations  Vent > 20 kt
SIGMETs :   Divers  Orages  Givrage  Turbulence  Onde Orograph.  Cendres Volcan.






- Altitude de l'aérodrome : 13 ft
- Code IATA : OST


EBOS - Oostend bruges Int.

DERNIER METAR :
  • 180150Z 18009KT CAVOK 12/10 Q1004 NOSIG

METARs EXPIRÉS :
  • 180120Z 18008KT CAVOK 12/10 Q1005 NOSIG
  • 180050Z 18008KT CAVOK 12/10 Q1005 NOSIG
  • 180020Z 18008KT CAVOK 12/10 Q1005 NOSIG
  • 172350Z 19008KT CAVOK 12/10 Q1005 NOSIG
  • 172320Z 18008KT CAVOK 13/11 Q1006 NOSIG
  • 172250Z 18007KT CAVOK 12/11 Q1006 NOSIG

TAF TAF EBOS
Valide du 18 à 00h jusqu'au 19 à 06h UTC


172309Z 1800/1906 19012KT 9999 SCT020CB SCT030
TEMPO 1805/1818 22017G27KT 3500 SHRA
PROB30
TEMPO 1805/1816 22022G37KT 2000 TSRA BKN014CB



MET'MAP, la Météo Aéronautique d'un coup d'oeil ! - Copyright ORBIFLY Décembre 2007 - Disclaimer

ORBIFLY MET'MAP TEAM :

Programmation & Développement : Alexandra Zaïnal
Conception & Développement : Baudouin d'Aumeries
Co-Programmation & Développement : Marc-Olivier Méhu
Soutien technique & logistique : Manuel Goepfert

Contact : metmap@orbifly.com




SOURCES & CREDITS :

   NOAA